Time;durP1;ratioP1;P1;durP2;ratioP2;P2;SDS_P1;SDS_P2;PMS_P1;PMS_P2;Temp;Humidity;BMP_temperature;BMP_pressure;BME280_temperature;BME280_humidity;BME280_pressure;Samples;Min_cycle;Max_cycle;Signal;HPM_P1;HPM_P2
2023/09/22 00:00:36;;;;;;;21.90;18.45;;;;;;;-145.63;56.85;38965.56;5026627;28;20353;-65
2023/09/22 00:03:04;;;;;;;26.35;18.05;;;;;;;-145.63;57.05;38953.84;5008438;28;20076;-64
2023/09/22 00:05:30;;;;;;;20.75;17.15;;;;;;;-145.63;57.22;38973.41;5019532;28;20048;-65
2023/09/22 00:07:56;;;;;;;23.95;18.30;;;;;;;-145.63;56.98;38971.44;5016357;28;20291;-64
2023/09/22 00:10:21;;;;;;;25.35;18.90;;;;;;;-145.63;56.75;38934.28;5009928;28;20365;-64
2023/09/22 00:12:47;;;;;;;22.67;18.48;;;;;;;-145.63;57.16;38965.56;5025768;28;20021;-64
2023/09/22 00:15:13;;;;;;;20.65;17.70;;;;;;;-145.63;56.99;38889.31;5006888;28;20049;-64
2023/09/22 00:17:39;;;;;;;24.50;18.05;;;;;;;-145.63;57.22;39010.56;5019387;28;20037;-64
2023/09/22 00:20:08;;;;;;;25.45;18.13;;;;;;;-145.63;57.16;39028.16;5016235;28;20022;-64
2023/09/22 00:22:34;;;;;;;23.27;18.23;;;;;;;-145.63;57.16;39002.72;5011590;28;20026;-65
2023/09/22 00:25:00;;;;;;;28.23;20.25;;;;;;;-145.63;57.09;38992.97;5024902;28;20084;-64
2023/09/22 00:27:26;;;;;;;22.88;18.00;;;;;;;-145.63;57.38;38992.97;5026042;28;20045;-65
2023/09/22 00:29:52;;;;;;;23.08;19.23;;;;;;;-145.63;57.33;38983.19;5025608;28;20229;-65
2023/09/22 00:32:17;;;;;;;26.05;19.85;;;;;;;-145.63;57.06;39016.44;5014233;28;20299;-65
2023/09/22 00:34:43;;;;;;;23.92;18.45;;;;;;;-145.63;57.11;39012.50;5012298;28;20030;-65
2023/09/22 00:37:09;;;;;;;25.73;19.38;;;;;;;-145.63;56.97;38989.03;5023551;28;20100;-65
2023/09/22 00:39:35;;;;;;;25.95;19.77;;;;;;;-145.63;57.07;38998.81;5005815;28;20026;-65
2023/09/22 00:42:08;;;;;;;21.58;18.33;;;;;;;-145.63;57.48;39002.72;5022497;28;20326;-66
2023/09/22 00:44:33;;;;;;;20.50;18.35;;;;;;;-145.63;57.47;38985.13;5025429;28;20034;-65
2023/09/22 00:47:00;;;;;;;22.77;18.15;;;;;;;-145.63;57.17;38992.97;5016584;28;20049;-65
2023/09/22 00:49:26;;;;;;;23.08;19.15;;;;;;;-145.63;57.07;39018.38;5009636;28;20041;-65
2023/09/22 00:51:53;;;;;;;20.30;17.88;;;;;;;-145.63;57.03;39084.88;5025521;28;20029;-65
2023/09/22 00:54:19;;;;;;;26.48;19.60;;;;;;;-145.63;57.33;38992.97;5025045;28;20192;-65
2023/09/22 00:56:46;;;;;;;23.30;19.55;;;;;;;-145.63;57.05;39020.34;5010330;28;20049;-66
2023/09/22 00:59:14;;;;;;;23.58;19.05;;;;;;;-145.63;57.16;39010.56;5007225;28;20044;-64
2023/09/22 01:01:42;;;;;;;21.42;18.10;;;;;;;-145.63;57.03;39067.28;5032452;28;20076;-65
2023/09/22 01:04:08;;;;;;;22.25;18.60;;;;;;;-145.63;57.27;39016.44;5024175;28;20021;-65
2023/09/22 01:06:35;;;;;;;25.05;19.50;;;;;;;-145.63;57.43;39010.56;5019976;28;20321;-63
2023/09/22 01:09:06;;;;;;;26.67;18.52;;;;;;;-145.63;57.24;39024.25;5022565;28;20113;-64
2023/09/22 01:11:34;;;;;;;22.88;19.10;;;;;;;-145.63;57.36;39008.59;5007620;28;20022;-64
2023/09/22 01:14:00;;;;;;;23.83;19.35;;;;;;;-145.63;57.09;38977.31;5024678;28;20018;-65
2023/09/22 01:16:26;;;;;;;22.67;19.15;;;;;;;-145.63;57.49;39051.63;5009385;28;20026;-64
2023/09/22 01:18:52;;;;;;;24.23;20.75;;;;;;;-145.63;57.68;39022.28;5017781;28;20045;-64
2023/09/22 01:21:18;;;;;;;24.70;20.02;;;;;;;-145.63;57.27;38355.50;5013402;28;20084;-63
2023/09/22 01:23:44;;;;;;;23.70;19.15;;;;;;;-145.63;57.67;39041.84;5020681;28;20069;-66
2023/09/22 01:26:09;;;;;;;23.45;19.85;;;;;;;-145.63;57.73;38996.88;5004706;28;20046;-65
2023/09/22 01:28:35;;;;;;;20.98;18.73;;;;;;;-145.63;57.48;39059.44;5023854;28;20033;-66
2023/09/22 01:31:01;;;;;;;22.75;18.73;;;;;;;-145.63;57.88;39028.16;5009734;28;20076;-65
2023/09/22 01:33:27;;;;;;;25.60;19.20;;;;;;;-145.63;57.47;39024.25;5015233;28;20084;-64
2023/09/22 01:35:53;;;;;;;27.95;20.95;;;;;;;-145.63;57.89;39028.16;5038742;28;20076;-64
2023/09/22 01:38:23;;;;;;;23.48;19.92;;;;;;;-145.63;57.91;39049.66;5024693;28;20306;-65
2023/09/22 01:40:49;;;;;;;25.30;21.95;;;;;;;-145.63;57.69;39012.50;5024218;28;20298;-63
2023/09/22 01:43:16;;;;;;;27.00;21.55;;;;;;;-145.63;57.53;39028.16;5007375;28;20041;-65
2023/09/22 01:45:43;;;;;;;26.55;20.58;;;;;;;-145.63;57.84;39032.06;5004764;28;20029;-64
2023/09/22 01:48:10;;;;;;;23.70;20.08;;;;;;;-145.63;57.60;39092.69;5011908;28;20314;-65
2023/09/22 01:50:40;;;;;;;27.27;20.02;;;;;;;-145.63;58.09;39018.38;5021066;28;20073;-66
2023/09/22 01:53:10;;;;;;;25.23;20.42;;;;;;;-145.63;57.95;39047.72;5004458;28;20117;-65
2023/09/22 01:55:37;;;;;;;26.40;20.70;;;;;;;-145.63;57.93;39004.69;5022148;28;20030;-66
2023/09/22 01:58:04;;;;;;;21.08;18.13;;;;;;;-145.63;58.12;39014.47;5009390;28;20026;-66
2023/09/22 02:00:31;;;;;;;22.20;19.52;;;;;;;-145.63;58.29;39034.03;5014344;28;20076;-65
2023/09/22 02:02:57;;;;;;;22.58;19.95;;;;;;;-145.63;58.22;39020.34;5018285;28;20060;-65
2023/09/22 02:05:23;;;;;;;26.10;21.00;;;;;;;-145.63;58.11;39039.88;5004924;28;20306;-64
2023/09/22 02:07:48;;;;;;;30.48;21.77;;;;;;;-145.63;57.99;39043.81;5023827;28;20036;-64
2023/09/22 02:10:15;;;;;;;28.38;20.33;;;;;;;-145.63;58.19;39108.34;5007807;28;20026;-63
2023/09/22 02:12:44;;;;;;;26.30;20.58;;;;;;;-145.63;58.11;39022.28;5015310;28;20072;-65
2023/09/22 02:15:10;;;;;;;23.27;19.33;;;;;;;-145.63;58.24;39010.56;5016883;28;20033;-65
2023/09/22 02:17:41;;;;;;;24.58;19.75;;;;;;;-145.63;57.91;39022.28;5005260;28;20076;-65
2023/09/22 02:20:17;;;;;;;23.20;20.60;;;;;;;-145.63;57.95;39026.19;5023641;28;20083;-66
2023/09/22 02:22:48;;;;;;;26.30;21.38;;;;;;;-145.63;58.22;39018.38;5003992;28;20030;-66
2023/09/22 02:25:15;;;;;;;27.80;21.20;;;;;;;-145.63;58.12;39051.63;5019273;28;20344;-65
2023/09/22 02:27:41;;;;;;;28.60;20.00;;;;;;;-145.63;58.01;39024.25;5011978;28;20319;-64
2023/09/22 02:30:08;;;;;;;24.98;19.88;;;;;;;-145.63;58.12;39004.69;5010369;28;20068;-65
2023/09/22 02:32:35;;;;;;;25.85;19.88;;;;;;;-145.63;58.27;39055.53;5021346;28;20056;-64
2023/09/22 02:35:01;;;;;;;23.65;19.58;;;;;;;-145.63;57.94;39006.66;5021450;28;20045;-64
2023/09/22 02:37:28;;;;;;;24.33;21.08;;;;;;;-145.63;58.03;38994.91;5005707;28;20023;-64
2023/09/22 02:39:54;;;;;;;27.52;20.77;;;;;;;-145.63;58.42;39039.88;5016738;28;20022;-65
2023/09/22 02:42:19;;;;;;;26.45;20.38;;;;;;;-145.63;58.29;39041.84;5015373;28;20024;-65
2023/09/22 02:44:45;;;;;;;25.95;20.85;;;;;;;-145.63;58.20;39049.66;5003635;28;20072;-64
2023/09/22 02:47:11;;;;;;;25.05;19.65;;;;;;;-145.63;58.42;39055.53;5003697;28;20049;-64
2023/09/22 02:49:36;;;;;;;26.67;21.25;;;;;;;-145.63;58.20;39039.88;5022065;28;20105;-64
2023/09/22 02:52:02;;;;;;;27.50;21.42;;;;;;;-145.63;58.26;39035.97;5009286;28;20196;-63
2023/09/22 02:54:28;;;;;;;25.30;20.83;;;;;;;-145.63;58.45;39039.88;5012993;28;20036;-64
2023/09/22 02:56:55;;;;;;;24.88;20.85;;;;;;;-145.63;58.34;39016.44;5022346;28;20230;-65
2023/09/22 02:59:22;;;;;;;25.80;19.40;;;;;;;-145.63;58.30;39024.25;5007557;28;20026;-65
2023/09/22 03:01:48;;;;;;;22.75;19.95;;;;;;;-145.63;58.68;39035.97;5043582;28;20341;-65
2023/09/22 03:04:14;;;;;;;24.30;20.10;;;;;;;-145.63;58.46;39047.72;5031800;28;20030;-65
2023/09/22 03:06:40;;;;;;;26.00;20.55;;;;;;;-145.63;58.61;39024.25;5016320;28;20046;-65
2023/09/22 03:09:06;;;;;;;24.67;19.67;;;;;;;-145.63;58.63;39024.25;5013279;28;20033;-66
2023/09/22 03:11:36;;;;;;;25.70;21.33;;;;;;;-145.63;58.86;39028.16;5028062;28;20617;-67
2023/09/22 03:14:03;;;;;;;26.40;20.20;;;;;;;-145.63;58.82;39022.28;5026866;28;20080;-66
2023/09/22 03:16:29;;;;;;;25.42;20.67;;;;;;;-145.63;58.95;39014.47;5009797;28;20022;-65
2023/09/22 03:18:58;;;;;;;26.00;20.77;;;;;;;-145.63;58.84;39032.06;5019543;28;20068;-67
2023/09/22 03:21:24;;;;;;;28.40;20.50;;;;;;;-145.63;59.05;39034.03;5018426;28;20022;-65
2023/09/22 03:23:51;;;;;;;23.65;20.02;;;;;;;-145.63;58.59;39020.34;5010922;28;20030;-66
2023/09/22 03:26:18;;;;;;;21.50;18.40;;;;;;;-145.63;58.63;39010.56;5026973;28;20049;-66
2023/09/22 03:28:44;;;;;;;25.10;21.23;;;;;;;-145.63;59.09;39032.06;5007509;28;20077;-65
2023/09/22 03:31:10;;;;;;;29.50;21.50;;;;;;;-145.63;58.81;39020.34;5021358;28;20034;-64
2023/09/22 03:33:40;;;;;;;26.00;19.75;;;;;;;-145.63;58.51;39047.72;5016683;28;20123;-64
2023/09/22 03:36:10;;;;;;;27.58;20.35;;;;;;;-145.63;58.79;39000.78;5012637;28;20025;-64
2023/09/22 03:38:40;;;;;;;26.05;20.77;;;;;;;-145.63;58.86;39010.56;5026502;28;20018;-64
2023/09/22 03:41:06;;;;;;;29.30;21.05;;;;;;;-145.63;58.82;39024.25;5026427;28;20330;-64
2023/09/22 03:43:33;;;;;;;25.55;21.50;;;;;;;-145.63;58.89;39032.06;5026237;28;20041;-64
2023/09/22 03:45:59;;;;;;;25.45;20.67;;;;;;;-145.63;59.25;39018.38;5013536;28;20034;-65
2023/09/22 03:48:25;;;;;;;25.95;20.10;;;;;;;-145.63;58.88;38991.00;5013630;28;20033;-64
2023/09/22 03:50:50;;;;;;;27.67;20.98;;;;;;;-145.63;58.87;39016.44;5020409;28;20048;-65
2023/09/22 03:53:16;;;;;;;25.17;21.08;;;;;;;-145.63;58.88;39028.16;5026114;28;20036;-65
2023/09/22 03:55:44;;;;;;;28.25;20.50;;;;;;;-145.63;58.78;39022.28;5007284;28;20019;-63
2023/09/22 03:58:10;;;;;;;28.02;20.75;;;;;;;-145.63;58.84;39032.06;5020563;28;20072;-64
2023/09/22 04:00:37;;;;;;;26.73;20.75;;;;;;;-145.63;58.80;39026.19;5032622;28;20042;-64
2023/09/22 04:03:07;;;;;;;28.33;23.15;;;;;;;-145.63;58.97;39035.97;5040500;28;20105;-65
2023/09/22 04:05:34;;;;;;;31.13;21.38;;;;;;;-145.63;59.46;39045.75;5021903;28;20026;-64
2023/09/22 04:08:00;;;;;;;28.05;22.70;;;;;;;-145.63;59.55;38994.91;5006471;28;20049;-64
2023/09/22 04:10:26;;;;;;;25.27;22.00;;;;;;;-145.63;59.44;39037.94;5009731;28;20310;-65
2023/09/22 04:12:52;;;;;;;31.77;24.67;;;;;;;-145.63;59.34;39002.72;5017403;28;20096;-64
2023/09/22 04:15:18;;;;;;;29.88;22.92;;;;;;;-145.63;59.20;38967.53;5019163;28;20026;-66
2023/09/22 04:17:46;;;;;;;28.20;21.60;;;;;;;-145.63;59.52;38996.88;5023359;28;20097;-64
2023/09/22 04:20:12;;;;;;;30.85;24.27;;;;;;;-145.63;59.62;38996.88;5007025;28;20346;-65
2023/09/22 04:22:38;;;;;;;33.45;23.95;;;;;;;-145.63;59.59;39010.56;5007898;28;20028;-64
2023/09/22 04:25:10;;;;;;;37.10;27.20;;;;;;;-145.63;60.13;38991.00;5019187;28;20025;-65
2023/09/22 04:27:43;;;;;;;35.63;24.13;;;;;;;-145.63;59.89;38996.88;5017970;28;20045;-66
2023/09/22 04:30:16;;;;;;;32.92;25.65;;;;;;;-145.63;59.82;38992.97;5019827;28;20038;-66
2023/09/22 04:32:45;;;;;;;35.53;26.58;;;;;;;-145.63;59.96;39004.69;5007796;28;20073;-63
2023/09/22 04:35:11;;;;;;;32.72;26.10;;;;;;;-145.63;59.78;38985.13;5025297;28;20042;-64
2023/09/22 04:37:37;;;;;;;36.92;26.13;;;;;;;-145.63;59.93;38975.34;5006517;28;20049;-63
2023/09/22 04:40:09;;;;;;;35.17;26.52;;;;;;;-145.63;59.88;38996.88;5018443;28;20218;-64
2023/09/22 04:42:35;;;;;;;37.45;26.40;;;;;;;-145.63;59.31;38979.28;5016178;28;20022;-63
2023/09/22 04:45:01;;;;;;;35.55;26.70;;;;;;;-145.63;59.64;38926.47;5005731;28;20401;-64
2023/09/22 04:47:26;;;;;;;36.40;26.88;;;;;;;-145.63;59.49;38979.28;5005286;28;20031;-63
2023/09/22 04:49:52;;;;;;;41.08;27.02;;;;;;;-145.63;58.95;38940.16;5024851;28;20052;-64
2023/09/22 04:52:18;;;;;;;36.90;26.88;;;;;;;-145.63;58.95;38998.81;5010158;28;20137;-63
2023/09/22 04:54:43;;;;;;;40.13;26.13;;;;;;;-145.63;58.94;38961.66;5015358;28;20033;-63
2023/09/22 04:57:09;;;;;;;38.47;26.63;;;;;;;-145.63;58.78;38910.81;5018399;28;20030;-64
2023/09/22 04:59:35;;;;;;;35.70;27.35;;;;;;;-145.63;58.72;38947.97;5013815;28;20337;-64
2023/09/22 05:02:01;;;;;;;36.85;25.95;;;;;;;-145.63;58.56;38969.50;5008728;28;20060;-65
2023/09/22 05:04:28;;;;;;;37.33;26.00;;;;;;;-145.63;58.72;38904.97;5021014;28;20048;-65
2023/09/22 05:06:55;;;;;;;30.83;24.73;;;;;;;-145.63;58.56;38940.16;5024458;28;20026;-64
2023/09/22 05:09:20;;;;;;;34.25;27.27;;;;;;;-145.63;58.38;38938.19;5024936;28;20068;-64
2023/09/22 05:11:46;;;;;;;34.83;26.30;;;;;;;-145.63;58.00;38916.69;5022259;28;20018;-64
2023/09/22 05:14:12;;;;;;;32.78;26.77;;;;;;;-145.63;57.80;38961.66;5011161;28;20018;-65
2023/09/22 05:16:37;;;;;;;36.88;27.13;;;;;;;-145.63;57.87;38901.03;5009475;28;20026;-65
2023/09/22 05:19:03;;;;;;;37.15;26.50;;;;;;;-145.63;57.88;38906.91;5011748;28;20038;-64
2023/09/22 05:21:29;;;;;;;36.50;26.88;;;;;;;-145.63;57.32;38901.03;5020073;28;20018;-65
2023/09/22 05:23:55;;;;;;;35.90;28.63;;;;;;;-145.63;57.63;38908.88;5009523;28;20034;-65
2023/09/22 05:26:20;;;;;;;36.17;28.75;;;;;;;-145.63;57.28;38879.53;5017207;28;20184;-65
2023/09/22 05:28:46;;;;;;;32.88;25.25;;;;;;;-145.63;57.16;38906.91;5006092;28;20033;-65
2023/09/22 05:31:12;;;;;;;35.28;27.38;;;;;;;-145.63;57.30;38903.00;5018409;28;20061;-65
2023/09/22 05:33:37;;;;;;;33.00;26.73;;;;;;;-145.63;56.72;38873.66;5015380;28;20222;-64
2023/09/22 05:36:03;;;;;;;37.67;29.98;;;;;;;-145.63;56.42;38861.94;5008836;28;20029;-65
2023/09/22 05:38:31;;;;;;;35.35;26.90;;;;;;;-145.63;56.60;38754.38;5023541;28;20030;-64
2023/09/22 05:40:58;;;;;;;34.05;23.90;;;;;;;-145.63;56.53;38852.16;5006333;28;20030;-64
2023/09/22 05:43:24;;;;;;;33.95;27.77;;;;;;;-145.63;56.78;38859.97;5023556;28;20152;-64
2023/09/22 05:45:57;;;;;;;32.92;25.45;;;;;;;-145.63;56.02;38815.00;5012788;28;20361;-65
2023/09/22 05:48:23;;;;;;;32.20;25.27;;;;;;;-145.63;55.84;38877.56;5011016;28;20091;-64
2023/09/22 05:50:56;;;;;;;38.40;27.08;;;;;;;-145.63;56.07;38793.50;5021591;28;20053;-64
2023/09/22 05:53:25;;;;;;;37.95;28.58;;;;;;;-145.63;56.08;38781.75;5004180;28;20022;-64
2023/09/22 05:56:11;;;;;;;37.33;29.52;;;;;;;-145.63;56.10;38813.03;5039243;28;20048;-64
2023/09/22 05:58:40;;;;;;;32.10;25.77;;;;;;;-145.63;55.96;38832.59;5026854;28;20029;-65
2023/09/22 06:01:10;;;;;;;33.05;26.35;;;;;;;-145.63;55.68;38789.59;5032159;28;20021;-65
2023/09/22 06:03:37;;;;;;;38.47;28.65;;;;;;;-145.63;55.72;38859.97;5029808;28;20081;-64
2023/09/22 06:06:12;;;;;;;35.17;28.27;;;;;;;-145.63;55.38;38797.41;5007891;28;20245;-64
2023/09/22 06:08:39;;;;;;;36.97;28.52;;;;;;;-145.63;55.24;38742.66;5023168;28;20030;-64
2023/09/22 06:11:06;;;;;;;35.78;28.20;;;;;;;-145.63;54.82;38715.28;5003875;28;20306;-65
2023/09/22 06:13:33;;;;;;;43.05;28.92;;;;;;;-145.63;53.59;38715.28;5019899;28;20045;-65
2023/09/22 06:16:00;;;;;;;43.55;27.13;;;;;;;-145.63;53.94;38672.25;5012082;28;20329;-64
2023/09/22 06:18:25;;;;;;;42.13;29.35;;;;;;;-145.63;53.87;38668.34;5010786;28;20328;-64
2023/09/22 06:20:58;;;;;;;39.25;27.63;;;;;;;-145.63;53.67;38637.06;5020903;28;20041;-64
2023/09/22 06:23:25;;;;;;;43.70;28.92;;;;;;;-145.63;52.61;38639.00;5004158;28;20026;-64
2023/09/22 06:25:51;;;;;;;40.13;28.65;;;;;;;-145.63;52.98;38619.47;5022157;28;20045;-64
2023/09/22 06:28:18;;;;;;;40.95;30.05;;;;;;;-145.63;53.03;38662.47;5009478;28;20049;-66
2023/09/22 06:30:48;;;;;;;39.33;29.42;;;;;;;-145.63;52.56;38637.06;5012596;28;20191;-65
2023/09/22 06:33:16;;;;;;;42.45;28.55;;;;;;;-145.63;52.38;38621.41;5018268;28;20109;-64
2023/09/22 06:35:46;;;;;;;37.05;29.50;;;;;;;-145.63;51.67;38633.16;5004220;28;20048;-63
2023/09/22 06:38:16;;;;;;;40.08;30.35;;;;;;;-145.63;50.56;38511.91;5021790;28;20030;-64
2023/09/22 06:40:44;;;;;;;37.88;28.15;;;;;;;-145.63;51.01;38478.66;5022864;28;20033;-64
2023/09/22 06:43:11;;;;;;;44.50;30.35;;;;;;;-145.63;50.29;38492.34;5010270;28;20028;-64
2023/09/22 06:45:38;;;;;;;42.58;29.50;;;;;;;-145.63;50.15;38470.84;5003457;28;20210;-65
2023/09/22 06:48:09;;;;;;;37.45;29.60;;;;;;;-145.63;50.03;38492.34;5007403;28;20314;-65
2023/09/22 06:50:36;;;;;;;42.60;28.52;;;;;;;-145.63;49.76;38490.41;5023213;28;20030;-64
2023/09/22 06:53:05;;;;;;;39.75;30.38;;;;;;;-145.63;49.48;38443.47;5003266;28;20044;-63
2023/09/22 06:55:32;;;;;;;33.92;28.63;;;;;;;-145.63;49.37;38445.44;5019472;28;20052;-64
2023/09/22 06:57:59;;;;;;;36.83;28.08;;;;;;;-145.63;49.04;38425.88;5011966;28;20026;-64
2023/09/22 07:00:28;;;;;;;43.35;29.98;;;;;;;-145.63;49.26;38421.97;5009066;28;20022;-64
2023/09/22 07:02:55;;;;;;;39.05;29.25;;;;;;;-145.63;48.62;38425.88;5031059;28;20080;-64
2023/09/22 07:05:21;;;;;;;42.70;29.83;;;;;;;-145.63;48.71;38414.16;5039625;28;20379;-64
2023/09/22 07:07:52;;;;;;;38.88;29.05;;;;;;;-145.63;48.66;38386.78;5024545;28;20295;-64
2023/09/22 07:10:18;;;;;;;36.00;28.83;;;;;;;-145.63;48.71;38375.03;5023136;28;20030;-66
2023/09/22 07:12:45;;;;;;;41.50;29.67;;;;;;;-145.63;48.56;38410.22;5013709;28;20041;-65
2023/09/22 07:15:11;;;;;;;36.35;29.70;;;;;;;-145.63;48.88;38416.09;5007581;28;20137;-65
2023/09/22 07:17:37;;;;;;;38.67;29.48;;;;;;;-145.63;48.43;38394.59;5023123;28;20214;-66
2023/09/22 07:20:09;;;;;;;40.67;29.48;;;;;;;-145.63;48.29;38453.25;5003142;28;20022;-64
2023/09/22 07:22:35;;;;;;;34.45;28.02;;;;;;;-145.63;48.54;38412.19;5018991;28;20026;-65
2023/09/22 07:25:02;;;;;;;37.35;27.48;;;;;;;-145.63;47.97;38414.16;5011339;28;20048;-64
2023/09/22 07:27:31;;;;;;;31.27;25.55;;;;;;;-145.63;47.94;38359.41;5016019;28;20381;-64
2023/09/22 07:29:57;;;;;;;38.78;27.48;;;;;;;-145.63;47.74;38416.09;5003199;28;20030;-65
2023/09/22 07:32:23;;;;;;;37.80;25.67;;;;;;;-145.63;47.82;38345.72;5002095;28;20218;-65
2023/09/22 07:34:49;;;;;;;33.70;23.70;;;;;;;-145.63;46.64;38158.00;5020719;28;20061;-64
2023/09/22 07:37:16;;;;;;;33.72;23.30;;;;;;;-145.63;47.13;38339.84;5010177;28;20192;-65
2023/09/22 07:39:42;;;;;;;28.17;22.23;;;;;;;-145.63;45.86;38314.44;5033951;28;20033;-63
2023/09/22 07:42:09;;;;;;;37.78;22.85;;;;;;;-145.63;46.18;38324.19;5030498;28;20064;-64
2023/09/22 07:44:36;;;;;;;32.15;23.15;;;;;;;-145.63;45.80;38289.00;5031991;28;20347;-64
2023/09/22 07:47:09;;;;;;;36.25;24.77;;;;;;;-145.63;45.91;38310.50;5020851;28;20069;-64
2023/09/22 07:49:43;;;;;;;32.42;21.50;;;;;;;-145.63;46.12;38292.91;5022289;28;20026;-65
2023/09/22 07:52:10;;;;;;;34.45;22.40;;;;;;;-145.63;44.29;38308.56;5025594;28;20323;-65
2023/09/22 07:54:39;;;;;;;32.03;21.60;;;;;;;-145.63;44.39;38273.38;5018384;28;20030;-65
2023/09/22 07:57:05;;;;;;;28.95;19.50;;;;;;;-145.63;43.51;38300.75;5014110;28;20318;-64
2023/09/22 07:59:31;;;;;;;29.00;17.35;;;;;;;-145.63;43.11;38232.31;5026351;28;20041;-64
2023/09/22 08:02:02;;;;;;;27.17;19.13;;;;;;;-145.63;43.40;38244.03;5024965;28;20054;-65
2023/09/22 08:04:28;;;;;;;31.40;18.33;;;;;;;-145.63;43.44;38210.81;5011708;28;20207;-63
2023/09/22 08:06:54;;;;;;;20.38;14.68;;;;;;;-145.63;41.09;38220.56;5015769;28;20032;-65
2023/09/22 08:09:21;;;;;;;21.92;13.43;;;;;;;-145.63;41.26;38185.38;5024626;28;20061;-64
2023/09/22 08:11:47;;;;;;;20.02;13.60;;;;;;;-145.63;41.55;38173.66;5034266;28;20041;-64
2023/09/22 08:14:13;;;;;;;18.63;14.20;;;;;;;-145.63;40.37;38158.00;5021507;28;20101;-66
2023/09/22 08:16:39;;;;;;;21.58;14.60;;;;;;;-145.63;40.57;38163.88;5006080;28;20070;-64
2023/09/22 08:19:10;;;;;;;19.15;13.55;;;;;;;-145.63;40.62;37682.94;5020074;28;20026;-64
2023/09/22 08:21:40;;;;;;;25.02;14.52;;;;;;;-145.63;40.32;38120.88;5034945;28;20032;-64
2023/09/22 08:24:07;;;;;;;17.33;12.82;;;;;;;-145.63;38.72;38138.47;5023216;28;20029;-65
2023/09/22 08:26:34;;;;;;;20.85;14.60;;;;;;;-145.63;38.99;38128.69;5009352;28;20041;-65
2023/09/22 08:29:00;;;;;;;20.80;14.07;;;;;;;-145.63;38.62;38109.13;5011657;28;20089;-64
2023/09/22 08:31:26;;;;;;;24.42;14.98;;;;;;;-145.63;38.69;38093.50;5019471;28;20057;-64
2023/09/22 08:33:53;;;;;;;19.35;12.15;;;;;;;-145.63;37.95;38007.47;5016037;28;20022;-63
2023/09/22 08:36:19;;;;;;;22.10;12.23;;;;;;;-145.63;36.78;37995.72;5010354;28;20045;-65
2023/09/22 08:38:47;;;;;;;24.15;13.25;;;;;;;-145.63;35.83;37995.72;5021604;28;20045;-64
2023/09/22 08:41:13;;;;;;;24.23;13.75;;;;;;;-145.63;36.18;37886.25;5027783;28;20025;-64
2023/09/22 08:43:45;;;;;;;18.27;12.45;;;;;;;-145.63;36.31;37835.41;5024378;28;20090;-64
2023/09/22 08:46:12;;;;;;;22.30;11.73;;;;;;;-145.63;34.38;37733.75;5013511;28;20085;-64
2023/09/22 08:48:37;;;;;;;18.15;12.02;;;;;;;-145.63;34.10;37686.84;5012448;28;20041;-64
2023/09/22 08:51:04;;;;;;;19.52;12.35;;;;;;;-145.63;33.13;37673.16;5019212;28;20104;-65
2023/09/22 08:53:30;;;;;;;15.73;10.93;;;;;;;-145.63;32.87;37653.59;5012052;28;20034;-63
2023/09/22 08:55:55;;;;;;;15.07;11.45;;;;;;;-145.63;31.93;37618.41;5014355;28;20195;-65
2023/09/22 08:58:21;;;;;;;16.35;11.18;;;;;;;-145.63;31.41;37585.19;5007975;28;20041;-65
2023/09/22 09:00:51;;;;;;;15.93;11.02;;;;;;;-145.63;30.76;37598.88;5008412;28;20218;-65
2023/09/22 09:03:21;;;;;;;17.30;11.10;;;;;;;-145.63;30.57;37577.38;5006083;28;20101;-65
2023/09/22 09:05:52;;;;;;;15.88;10.27;;;;;;;-145.63;31.03;37467.91;5005831;28;20022;-66
2023/09/22 09:08:23;;;;;;;18.00;9.95;;;;;;;-145.63;30.70;37397.53;5016552;28;20033;-67
2023/09/22 09:10:50;;;;;;;18.13;10.07;;;;;;;-145.63;30.05;37358.44;5022165;28;20029;-65
2023/09/22 09:13:18;;;;;;;19.17;10.40;;;;;;;-145.63;30.24;37334.97;5012132;28;20046;-66
2023/09/22 09:15:47;;;;;;;21.20;10.95;;;;;;;-145.63;29.44;37362.34;5007328;28;20034;-65
2023/09/22 09:18:18;;;;;;;13.45;9.80;;;;;;;-145.63;29.08;37377.97;5008714;28;20029;-65
2023/09/22 09:20:46;;;;;;;18.90;9.77;;;;;;;-145.63;27.75;37505.03;5024455;28;20026;-67
2023/09/22 09:23:18;;;;;;;12.85;8.82;;;;;;;-145.63;28.72;37399.47;5019900;28;20073;-64
2023/09/22 09:25:54;;;;;;;16.08;9.20;;;;;;;-145.63;28.24;37397.53;5005223;28;20089;-66
2023/09/22 09:28:22;;;;;;;15.55;8.57;;;;;;;-145.63;29.67;37440.53;5013190;28;20056;-64
2023/09/22 09:30:55;;;;;;;14.82;9.05;;;;;;;-145.63;28.28;37413.16;5020292;28;20034;-64
2023/09/22 09:33:32;;;;;;;16.23;8.75;;;;;;;-145.63;27.11;37563.69;5019439;28;20030;-64
2023/09/22 09:35:58;;;;;;;17.63;8.50;;;;;;;-145.63;28.37;37587.13;5019231;28;20093;-63
2023/09/22 09:38:29;;;;;;;19.05;8.27;;;;;;;-145.63;28.28;37557.81;5006808;28;20050;-64
2023/09/22 09:40:58;;;;;;;25.17;12.73;;;;;;;-145.63;27.77;37555.88;5012117;28;20117;-64
2023/09/22 09:43:24;;;;;;;14.48;7.32;;;;;;;-145.63;27.54;37585.19;5026667;28;20026;-64
2023/09/22 09:45:51;;;;;;;12.07;7.40;;;;;;;-145.63;28.64;37694.66;5029104;28;20080;-64
2023/09/22 09:48:18;;;;;;;11.90;7.75;;;;;;;-145.63;26.83;36861.94;5018301;28;20038;-64
2023/09/22 09:50:47;;;;;;;18.35;7.05;;;;;;;-145.63;27.39;37655.56;5019759;28;20298;-64
2023/09/22 09:53:45;;;;;;;9.68;7.35;;;;;;;-145.63;27.34;37589.09;5019281;28;20041;-63
2023/09/22 09:56:15;;;;;;;12.40;7.65;;;;;;;-145.63;26.56;37641.88;5012458;28;20034;-65
2023/09/22 09:58:42;;;;;;;8.85;6.75;;;;;;;-145.63;27.28;37637.97;5021237;28;20060;-64
2023/09/22 10:01:08;;;;;;;8.88;6.25;;;;;;;-145.63;26.59;37663.38;5018803;28;20025;-65
2023/09/22 10:03:38;;;;;;;7.50;6.10;;;;;;;-145.63;25.99;37679.03;5019679;28;20053;-65
2023/09/22 10:06:06;;;;;;;9.25;6.50;;;;;;;-145.63;25.05;37661.44;5019088;28;20214;-65
2023/09/22 10:08:32;;;;;;;8.38;5.75;;;;;;;-145.63;25.22;37659.47;5003894;28;20277;-64
2023/09/22 10:11:01;;;;;;;8.50;5.82;;;;;;;-145.63;25.03;37655.56;5022015;28;20026;-64
2023/09/22 10:13:27;;;;;;;10.60;6.32;;;;;;;-145.63;24.95;37671.19;5016996;28;20033;-65
2023/09/22 10:15:56;;;;;;;9.10;6.65;;;;;;;-145.63;25.75;37626.25;5016077;28;20042;-65
2023/09/22 10:18:41;;;;;;;8.27;7.38;;;;;;;-145.63;26.48;37634.06;5013244;28;20026;-64
2023/09/22 10:21:07;;;;;;;7.97;6.47;;;;;;;-145.63;25.51;37677.06;5016904;28;20026;-65
2023/09/22 10:23:33;;;;;;;10.18;6.35;;;;;;;-145.63;24.77;37696.63;5004265;28;20373;-64
2023/09/22 10:26:16;;;;;;;9.93;6.78;;;;;;;-145.63;24.06;37679.03;5020910;28;20054;-64
2023/09/22 10:28:42;;;;;;;11.25;6.55;;;;;;;-145.63;25.19;37622.31;5008078;28;20203;-64
2023/09/22 10:31:08;;;;;;;10.82;7.15;;;;;;;-145.63;24.74;37659.47;5011613;28;20025;-64
2023/09/22 10:33:35;;;;;;;8.63;6.70;;;;;;;-145.63;24.11;37647.75;5017741;28;20033;-65
2023/09/22 10:36:01;;;;;;;8.63;6.53;;;;;;;-145.63;24.99;37673.16;5019399;28;20036;-64
2023/09/22 10:38:27;;;;;;;13.38;6.95;;;;;;;-145.63;25.37;37606.69;5023711;28;20029;-64
2023/09/22 10:40:59;;;;;;;11.15;6.75;;;;;;;-145.63;25.43;37626.25;5008321;28;20022;-64
2023/09/22 10:43:36;;;;;;;7.88;6.15;;;;;;;-145.63;25.22;37706.38;5023619;28;20056;-65
2023/09/22 10:46:03;;;;;;;10.82;6.32;;;;;;;-145.63;25.82;37639.91;5012989;28;20122;-65
2023/09/22 10:48:35;;;;;;;10.35;6.20;;;;;;;-145.63;25.54;37679.03;5022601;28;20040;-65
2023/09/22 10:51:02;;;;;;;10.10;7.30;;;;;;;-145.63;25.28;37675.09;5014858;28;20046;-63
2023/09/22 10:53:33;;;;;;;10.02;6.57;;;;;;;-145.63;24.90;37675.09;5019928;28;20032;-66
2023/09/22 10:56:02;;;;;;;;;;;;;;;-145.63;23.20;37682.94;5020815;28;20290;-63
2023/09/22 10:58:28;;;;;;;9.77;6.75;;;;;;;-145.63;24.60;37686.84;5023068;28;19906;-64
2023/09/22 11:00:55;;;;;;;11.45;6.50;;;;;;;-145.63;23.54;37669.25;5013083;28;20037;-64
2023/09/22 11:03:21;;;;;;;9.45;6.60;;;;;;;-145.63;23.93;37659.47;5011370;28;20036;-65
2023/09/22 11:05:57;;;;;;;7.40;6.70;;;;;;;-145.63;23.68;37708.34;5034204;28;20029;-65